createdAt,value
2023-03-29T00:00:24.665Z,11.57
2023-03-29T00:01:00.463Z,11.48
2023-03-29T00:01:34.915Z,10.48
2023-03-29T00:02:09.639Z,11.40
2023-03-29T00:02:42.194Z,10.27
2023-03-29T00:03:15.023Z,11.40
2023-03-29T00:03:47.860Z,11.88
2023-03-29T00:04:20.248Z,12.07
2023-03-29T00:04:53.732Z,12.35
2023-03-29T00:05:26.514Z,12.90
2023-03-29T00:06:03.332Z,12.88
2023-03-29T00:06:36.599Z,13.32
2023-03-29T00:07:09.065Z,12.50
2023-03-29T00:07:42.075Z,12.85
2023-03-29T00:08:14.965Z,12.30
2023-03-29T00:08:47.569Z,11.88
2023-03-29T00:09:20.288Z,10.80
2023-03-29T00:09:53.084Z,10.93
2023-03-29T00:10:25.528Z,9.60
2023-03-29T00:10:59.809Z,10.73
2023-03-29T00:11:32.914Z,10.65
2023-03-29T00:12:05.341Z,9.88
2023-03-29T00:12:38.721Z,9.35
2023-03-29T00:13:11.105Z,9.35
2023-03-29T00:13:44.126Z,9.38
2023-03-29T00:14:17.000Z,9.63
2023-03-29T00:14:49.366Z,8.85
2023-03-29T00:15:22.058Z,9.30
2023-03-29T00:15:55.085Z,8.30
2023-03-29T00:16:27.717Z,8.80
2023-03-29T00:17:00.054Z,8.32
2023-03-29T00:17:32.624Z,8.43
2023-03-29T00:18:05.000Z,7.97
2023-03-29T00:18:37.308Z,8.85
2023-03-29T00:19:09.580Z,8.23
2023-03-29T00:19:43.288Z,8.20
2023-03-29T00:20:16.670Z,8.27
2023-03-29T00:20:58.469Z,8.60
2023-03-29T00:21:31.012Z,7.95
2023-03-29T00:22:06.040Z,8.02
2023-03-29T00:22:42.498Z,7.50
2023-03-29T00:23:14.732Z,8.77
2023-03-29T00:23:47.018Z,7.88
2023-03-29T00:24:21.614Z,8.07
2023-03-29T00:24:54.375Z,7.72
2023-03-29T00:25:27.581Z,7.97
2023-03-29T00:25:59.922Z,7.43
2023-03-29T00:26:32.345Z,7.67
2023-03-29T00:27:04.952Z,7.60
2023-03-29T00:27:37.647Z,8.40
2023-03-29T00:28:10.207Z,8.55
2023-03-29T00:28:42.490Z,8.27
2023-03-29T00:29:15.084Z,9.07
2023-03-29T00:29:47.731Z,9.32
2023-03-29T00:30:20.042Z,8.45
2023-03-29T00:30:52.373Z,9.88
2023-03-29T00:31:24.749Z,8.82
2023-03-29T00:31:57.672Z,8.17
2023-03-29T00:32:30.513Z,8.52
2023-03-29T00:33:02.987Z,8.70
2023-03-29T00:33:35.557Z,8.13
2023-03-29T00:34:08.092Z,9.15
2023-03-29T00:34:42.778Z,8.93
2023-03-29T00:35:15.397Z,8.82
2023-03-29T00:35:51.210Z,9.18
2023-03-29T00:36:24.098Z,9.05
2023-03-29T00:36:58.282Z,8.57
2023-03-29T00:37:30.574Z,8.90
2023-03-29T00:38:03.287Z,9.43
2023-03-29T00:38:35.897Z,11.80
2023-03-29T00:39:08.392Z,13.77
2023-03-29T00:39:42.493Z,12.40
2023-03-29T00:40:15.814Z,11.60
2023-03-29T00:40:48.153Z,11.05
2023-03-29T00:41:20.352Z,10.63
2023-03-29T00:41:53.190Z,10.93
2023-03-29T00:42:26.370Z,10.75
2023-03-29T00:42:58.849Z,10.80
2023-03-29T00:43:31.438Z,13.23
2023-03-29T00:44:04.740Z,12.70
2023-03-29T00:44:56.091Z,13.23
2023-03-29T00:45:31.066Z,11.20
2023-03-29T00:46:03.777Z,10.48
2023-03-29T00:46:36.488Z,11.77
2023-03-29T00:47:08.859Z,10.90
2023-03-29T00:47:46.051Z,12.20
2023-03-29T00:48:21.084Z,10.93
2023-03-29T00:48:56.387Z,10.90
2023-03-29T00:49:29.710Z,10.65
2023-03-29T00:50:08.290Z,10.82
2023-03-29T00:50:49.484Z,11.77
2023-03-29T00:51:22.961Z,10.95
2023-03-29T00:51:56.366Z,11.85
2023-03-29T00:52:30.664Z,11.05
2023-03-29T00:53:12.687Z,10.73
2023-03-29T00:53:48.707Z,11.10
2023-03-29T00:54:21.192Z,10.73
2023-03-29T00:54:55.116Z,11.33
2023-03-29T00:55:29.962Z,10.75
2023-03-29T00:56:14.269Z,9.98
2023-03-29T00:56:49.799Z,10.35
2023-03-29T00:57:26.508Z,11.20
2023-03-29T00:58:01.244Z,10.13
2023-03-29T00:58:37.112Z,10.93
2023-03-29T00:59:12.647Z,10.93
2023-03-29T00:59:45.616Z,10.95
2023-03-29T01:00:21.097Z,12.77
2023-03-29T01:01:04.126Z,11.43
2023-03-29T01:01:42.325Z,10.70
2023-03-29T01:02:16.393Z,12.00
2023-03-29T01:02:54.254Z,11.48
2023-03-29T01:03:28.874Z,12.57
2023-03-29T01:04:04.843Z,11.23
2023-03-29T01:04:46.900Z,13.48
2023-03-29T01:05:22.790Z,11.13
2023-03-29T01:06:00.657Z,11.57
2023-03-29T01:06:35.136Z,12.20
2023-03-29T01:07:22.012Z,12.23
2023-03-29T01:07:59.320Z,11.88
2023-03-29T01:08:43.386Z,11.88
2023-03-29T01:09:16.571Z,11.85
2023-03-29T01:09:52.176Z,13.00
2023-03-29T01:10:36.557Z,11.25
2023-03-29T01:11:13.067Z,10.15
2023-03-29T01:11:48.638Z,10.65
2023-03-29T01:12:23.173Z,9.00
2023-03-29T01:12:58.458Z,8.65
2023-03-29T01:13:39.915Z,8.05
2023-03-29T01:14:16.898Z,8.70
2023-03-29T01:14:53.485Z,10.27
2023-03-29T01:15:27.432Z,9.57
2023-03-29T01:16:01.270Z,10.10
2023-03-29T01:16:35.504Z,9.40
2023-03-29T01:17:08.037Z,9.20
2023-03-29T01:17:43.643Z,9.10
2023-03-29T01:18:16.190Z,9.18
2023-03-29T01:18:48.811Z,8.68
2023-03-29T01:19:23.253Z,8.43
2023-03-29T01:20:17.531Z,7.63
2023-03-29T01:20:51.266Z,9.38
2023-03-29T01:21:36.592Z,9.02
2023-03-29T01:22:29.258Z,8.20
2023-03-29T01:23:21.387Z,7.95
2023-03-29T01:23:58.852Z,7.22
2023-03-29T01:24:55.795Z,7.72
2023-03-29T01:25:37.111Z,7.18
2023-03-29T01:26:19.989Z,6.75
2023-03-29T01:27:05.662Z,7.18
2023-03-29T01:27:38.004Z,7.25
2023-03-29T01:28:11.974Z,7.72
2023-03-29T01:28:49.812Z,8.30
2023-03-29T01:29:22.188Z,8.57
2023-03-29T01:30:01.374Z,7.43
2023-03-29T01:30:38.158Z,7.10
2023-03-29T01:31:17.384Z,7.00
2023-03-29T01:31:57.392Z,7.22
2023-03-29T01:32:35.505Z,7.47
2023-03-29T01:33:14.704Z,7.33
2023-03-29T01:33:51.510Z,7.10
2023-03-29T01:34:46.977Z,7.25
2023-03-29T01:35:29.977Z,7.80
2023-03-29T01:36:10.317Z,7.32
2023-03-29T01:36:45.350Z,6.75
2023-03-29T01:37:22.435Z,7.88
2023-03-29T01:38:01.845Z,6.57
2023-03-29T01:38:40.143Z,7.82
2023-03-29T01:39:12.577Z,6.50
2023-03-29T01:39:46.210Z,6.80
2023-03-29T01:40:18.670Z,7.05
2023-03-29T01:40:51.531Z,6.00
2023-03-29T01:41:28.824Z,6.97
2023-03-29T01:42:19.808Z,6.55
2023-03-29T01:42:55.715Z,6.07
2023-03-29T01:43:31.882Z,9.38
2023-03-29T01:44:08.475Z,7.32
2023-03-29T01:44:41.137Z,6.78
2023-03-29T01:45:22.256Z,5.10
2023-03-29T01:46:00.867Z,4.67
2023-03-29T01:46:43.627Z,3.55
2023-03-29T01:47:35.236Z,5.60
2023-03-29T01:48:15.338Z,5.43
2023-03-29T01:49:00.123Z,5.70
2023-03-29T01:49:34.988Z,5.38
2023-03-29T01:50:12.571Z,5.90
2023-03-29T01:50:45.336Z,5.72
2023-03-29T01:51:30.137Z,6.30
2023-03-29T01:52:08.495Z,5.43
2023-03-29T01:53:00.045Z,5.63
2023-03-29T01:53:35.869Z,5.35
2023-03-29T01:54:32.020Z,6.05
2023-03-29T01:55:12.956Z,5.57
2023-03-29T01:55:51.999Z,5.50
2023-03-29T01:56:26.174Z,5.18
2023-03-29T01:56:59.134Z,5.90
2023-03-29T01:57:33.210Z,5.22
2023-03-29T01:58:07.532Z,5.20
2023-03-29T01:58:47.582Z,4.90
2023-03-29T01:59:23.157Z,5.53
2023-03-29T01:59:56.396Z,5.43
2023-03-29T02:00:30.008Z,5.05
2023-03-29T02:01:06.081Z,5.75
2023-03-29T02:01:40.896Z,5.80
2023-03-29T02:02:15.803Z,5.18
2023-03-29T02:02:49.039Z,5.97
2023-03-29T02:03:25.424Z,5.68
2023-03-29T02:04:03.429Z,5.70
2023-03-29T02:04:40.103Z,5.82
2023-03-29T02:05:15.337Z,5.28
2023-03-29T02:05:47.886Z,5.40
2023-03-29T02:06:22.903Z,6.80
2023-03-29T02:06:56.406Z,5.90
2023-03-29T02:07:31.065Z,7.20
2023-03-29T02:08:05.429Z,6.22
2023-03-29T02:08:39.172Z,6.68
2023-03-29T02:09:12.775Z,6.28
2023-03-29T02:09:45.349Z,6.05
2023-03-29T02:10:17.710Z,5.18
2023-03-29T02:10:51.875Z,5.38
2023-03-29T02:11:26.067Z,4.82
2023-03-29T02:12:01.063Z,5.63
2023-03-29T02:12:33.855Z,5.53
2023-03-29T02:13:07.581Z,5.57
2023-03-29T02:13:40.008Z,6.72
2023-03-29T02:14:14.165Z,6.07
2023-03-29T02:14:46.544Z,5.75
2023-03-29T02:15:20.129Z,5.53
2023-03-29T02:15:52.779Z,4.68
2023-03-29T02:16:25.077Z,5.90
2023-03-29T02:16:57.564Z,5.47
2023-03-29T02:17:30.766Z,5.55
2023-03-29T02:18:04.314Z,4.93
2023-03-29T02:18:37.123Z,5.03
2023-03-29T02:19:09.849Z,4.20
2023-03-29T02:19:42.804Z,5.00
2023-03-29T02:20:17.705Z,5.28
2023-03-29T02:20:51.111Z,4.97
2023-03-29T02:21:30.266Z,4.53
2023-03-29T02:22:07.600Z,4.43
2023-03-29T02:22:53.128Z,4.80
2023-03-29T02:23:34.435Z,4.20
2023-03-29T02:24:09.711Z,4.15
2023-03-29T02:24:43.558Z,3.85
2023-03-29T02:25:17.155Z,4.30
2023-03-29T02:25:53.995Z,4.07
2023-03-29T02:26:28.177Z,4.22
2023-03-29T02:27:01.565Z,4.85
2023-03-29T02:27:34.494Z,4.70
2023-03-29T02:28:07.183Z,4.20
2023-03-29T02:28:39.568Z,4.25
2023-03-29T02:29:12.997Z,4.30
2023-03-29T02:29:47.219Z,4.40
2023-03-29T02:30:21.353Z,5.05
2023-03-29T02:31:03.700Z,4.57
2023-03-29T02:31:43.549Z,4.88
2023-03-29T02:32:25.004Z,4.80
2023-03-29T02:33:15.910Z,5.03
2023-03-29T02:34:09.058Z,4.40
2023-03-29T02:34:55.216Z,4.60
2023-03-29T02:35:34.829Z,4.32
2023-03-29T02:36:13.832Z,4.15
2023-03-29T02:36:47.741Z,5.05
2023-03-29T02:37:21.101Z,4.57
2023-03-29T02:37:55.205Z,4.70
2023-03-29T02:38:28.434Z,4.63
2023-03-29T02:39:04.276Z,4.88
2023-03-29T02:39:38.778Z,5.95
2023-03-29T02:40:13.261Z,6.30
2023-03-29T02:40:47.024Z,6.20
2023-03-29T02:41:20.063Z,7.05
2023-03-29T02:41:53.175Z,7.32
2023-03-29T02:42:26.050Z,7.25
2023-03-29T02:43:00.559Z,6.57
2023-03-29T02:43:33.136Z,7.07
2023-03-29T02:44:08.422Z,7.00
2023-03-29T02:44:42.168Z,6.32
2023-03-29T02:45:16.046Z,6.35
2023-03-29T02:45:48.927Z,7.10
2023-03-29T02:46:21.732Z,7.28
2023-03-29T02:47:00.733Z,7.63
2023-03-29T02:47:36.320Z,7.18
2023-03-29T02:48:11.164Z,8.88
2023-03-29T02:48:45.294Z,9.00
2023-03-29T02:49:18.363Z,6.72
2023-03-29T02:49:51.182Z,7.50
2023-03-29T02:50:25.122Z,7.47
2023-03-29T02:51:02.286Z,8.27
2023-03-29T02:51:36.033Z,7.13
2023-03-29T02:52:15.647Z,7.35
2023-03-29T02:52:53.441Z,7.30
2023-03-29T02:53:39.401Z,6.20
2023-03-29T02:54:19.709Z,7.18
2023-03-29T02:54:54.970Z,6.28
2023-03-29T02:55:34.894Z,6.28
2023-03-29T02:56:08.242Z,6.60
2023-03-29T02:56:45.327Z,6.43
2023-03-29T02:57:18.163Z,6.85
2023-03-29T02:57:50.719Z,6.75
2023-03-29T02:58:26.792Z,7.68
2023-03-29T02:58:59.333Z,7.50
2023-03-29T02:59:32.173Z,8.40
2023-03-29T03:00:09.681Z,8.80
2023-03-29T03:00:45.355Z,9.40
2023-03-29T03:01:18.601Z,8.57
2023-03-29T03:01:52.914Z,8.80
2023-03-29T03:02:26.090Z,7.63
2023-03-29T03:03:01.999Z,8.07
2023-03-29T03:03:35.994Z,7.47
2023-03-29T03:04:10.492Z,9.07
2023-03-29T03:04:43.843Z,7.95
2023-03-29T03:05:16.526Z,7.82
2023-03-29T03:05:49.420Z,7.07
2023-03-29T03:06:22.588Z,6.85
2023-03-29T03:06:55.806Z,6.28
2023-03-29T03:07:28.981Z,6.88
2023-03-29T03:08:01.497Z,6.43
2023-03-29T03:08:33.977Z,7.05
2023-03-29T03:09:06.703Z,7.78
2023-03-29T03:09:42.828Z,8.50
2023-03-29T03:10:15.462Z,8.80
2023-03-29T03:10:47.993Z,9.15
2023-03-29T03:11:20.558Z,8.20
2023-03-29T03:11:53.119Z,7.35
2023-03-29T03:12:26.367Z,7.38
2023-03-29T03:12:58.955Z,7.35
2023-03-29T03:13:31.478Z,8.13
2023-03-29T03:14:04.269Z,9.63
2023-03-29T03:14:37.039Z,10.43
2023-03-29T03:15:09.813Z,11.32
2023-03-29T03:15:49.537Z,10.05
2023-03-29T03:16:22.498Z,9.68
2023-03-29T03:16:55.371Z,10.25
2023-03-29T03:17:27.876Z,9.27
2023-03-29T03:18:01.001Z,9.30
2023-03-29T03:18:34.813Z,7.18
2023-03-29T03:19:07.276Z,9.73
2023-03-29T03:19:40.089Z,9.10
2023-03-29T03:20:13.088Z,9.98
2023-03-29T03:20:56.406Z,9.20
2023-03-29T03:21:29.042Z,9.50
2023-03-29T03:22:01.241Z,10.50
2023-03-29T03:22:35.095Z,10.70
2023-03-29T03:23:09.295Z,8.55
2023-03-29T03:23:42.286Z,9.00
2023-03-29T03:24:14.495Z,9.48
2023-03-29T03:24:46.886Z,8.93
2023-03-29T03:25:21.453Z,8.82
2023-03-29T03:25:55.829Z,7.55
2023-03-29T03:26:30.377Z,7.35
2023-03-29T03:27:02.767Z,7.60
2023-03-29T03:27:35.078Z,8.80
2023-03-29T03:28:07.770Z,11.68
2023-03-29T03:28:40.502Z,12.27
2023-03-29T03:29:17.467Z,9.05
2023-03-29T03:30:19.176Z,12.80
2023-03-29T03:31:06.866Z,15.27
2023-03-29T03:31:58.287Z,13.63
2023-03-29T03:32:44.290Z,12.20
2023-03-29T03:33:53.024Z,13.00
2023-03-29T03:34:41.640Z,12.32
2023-03-29T03:35:14.255Z,14.57
2023-03-29T03:35:46.774Z,9.55
2023-03-29T03:36:26.139Z,8.57
2023-03-29T03:37:01.958Z,8.32
2023-03-29T03:37:38.720Z,8.45
2023-03-29T03:38:13.184Z,7.70
2023-03-29T03:38:46.586Z,9.45
2023-03-29T03:39:19.138Z,8.90
2023-03-29T03:39:52.278Z,9.40
2023-03-29T03:40:26.575Z,11.13
2023-03-29T03:41:01.470Z,12.18
2023-03-29T03:41:38.136Z,12.30
2023-03-29T03:42:10.643Z,10.93
2023-03-29T03:42:47.924Z,11.57
2023-03-29T03:43:20.786Z,11.55
2023-03-29T03:43:54.296Z,10.77
2023-03-29T03:44:26.980Z,12.75
2023-03-29T03:45:16.820Z,17.65
2023-03-29T03:46:05.117Z,19.02
2023-03-29T03:46:37.615Z,19.45
2023-03-29T03:47:10.995Z,18.50
2023-03-29T03:47:43.377Z,25.80
2023-03-29T03:48:30.384Z,21.02
2023-03-29T03:49:32.665Z,23.85
2023-03-29T03:50:06.728Z,24.27
2023-03-29T03:50:39.523Z,26.02
2023-03-29T03:51:11.997Z,21.38
2023-03-29T03:51:45.691Z,15.00
2023-03-29T03:52:19.474Z,13.53
2023-03-29T03:52:52.903Z,12.85
2023-03-29T03:53:27.468Z,16.13
2023-03-29T03:54:20.245Z,16.85
2023-03-29T03:55:12.986Z,15.38
2023-03-29T03:55:49.845Z,14.18
2023-03-29T03:56:30.228Z,14.20
2023-03-29T03:57:21.014Z,20.08
2023-03-29T03:57:56.534Z,23.02
2023-03-29T03:58:29.150Z,21.67
2023-03-29T03:59:02.158Z,26.63
2023-03-29T03:59:39.532Z,23.95
2023-03-29T04:00:21.989Z,24.88
2023-03-29T04:01:12.394Z,25.40
2023-03-29T04:01:53.434Z,24.80
2023-03-29T04:02:28.532Z,21.50
2023-03-29T04:03:02.980Z,21.15
2023-03-29T04:03:36.332Z,23.17
2023-03-29T04:04:09.691Z,22.73
2023-03-29T04:04:42.623Z,20.92
2023-03-29T04:05:21.948Z,20.90
2023-03-29T04:05:54.810Z,18.75
2023-03-29T04:06:31.608Z,20.42
2023-03-29T04:07:27.989Z,21.90
2023-03-29T04:08:13.317Z,22.58
2023-03-29T04:09:04.628Z,17.80
2023-03-29T04:09:44.301Z,18.85
2023-03-29T04:10:29.805Z,15.88
2023-03-29T04:11:11.727Z,14.95
2023-03-29T04:11:47.104Z,13.63
2023-03-29T04:12:19.724Z,12.75
2023-03-29T04:12:52.406Z,11.65
2023-03-29T04:13:26.595Z,11.77
2023-03-29T04:14:19.185Z,11.88
2023-03-29T04:15:07.430Z,10.07
2023-03-29T04:15:40.184Z,10.13
2023-03-29T04:16:15.903Z,10.07
2023-03-29T04:16:48.450Z,9.75
2023-03-29T04:17:40.944Z,8.90
2023-03-29T04:18:23.676Z,8.65
2023-03-29T04:18:59.791Z,9.02
2023-03-29T04:19:32.604Z,8.90
2023-03-29T04:20:12.104Z,9.27
2023-03-29T04:20:46.225Z,8.45
2023-03-29T04:21:21.429Z,8.20
2023-03-29T04:21:53.987Z,7.13
2023-03-29T04:22:26.592Z,8.57
2023-03-29T04:22:59.385Z,7.60
2023-03-29T04:23:32.673Z,7.80
2023-03-29T04:24:05.862Z,9.25
2023-03-29T04:24:41.165Z,9.75
2023-03-29T04:25:42.723Z,9.88
2023-03-29T04:26:47.947Z,9.43
2023-03-29T04:27:26.796Z,8.88
2023-03-29T04:27:59.612Z,8.45
2023-03-29T04:29:01.032Z,9.05
2023-03-29T04:29:47.435Z,8.88
2023-03-29T04:30:27.063Z,9.48
2023-03-29T04:31:15.110Z,10.48
2023-03-29T04:32:02.853Z,9.32
2023-03-29T04:32:55.732Z,9.70
2023-03-29T04:33:29.613Z,10.23
2023-03-29T04:34:05.636Z,10.95
2023-03-29T04:34:38.465Z,12.45
2023-03-29T04:35:11.937Z,11.73
2023-03-29T04:35:44.763Z,11.93
2023-03-29T04:36:21.084Z,12.77
2023-03-29T04:36:53.548Z,12.07
2023-03-29T04:37:30.039Z,12.38
2023-03-29T04:38:04.604Z,11.50
2023-03-29T04:38:38.277Z,13.15
2023-03-29T04:39:11.594Z,12.93
2023-03-29T04:39:45.137Z,13.52
2023-03-29T04:40:20.011Z,13.40
2023-03-29T04:41:15.727Z,12.63
2023-03-29T04:41:48.766Z,17.00
2023-03-29T04:42:27.956Z,17.23
2023-03-29T04:43:00.339Z,23.50
2023-03-29T04:43:32.719Z,24.85
2023-03-29T04:44:14.791Z,21.90
2023-03-29T04:44:47.542Z,19.45
2023-03-29T04:45:24.542Z,20.33
2023-03-29T04:46:19.886Z,19.90
2023-03-29T04:47:15.983Z,16.50
2023-03-29T04:48:01.468Z,15.18
2023-03-29T04:48:34.540Z,15.15
2023-03-29T04:49:07.146Z,13.82
2023-03-29T04:49:42.903Z,14.52
2023-03-29T04:50:22.634Z,13.25
2023-03-29T04:50:55.210Z,13.02
2023-03-29T04:51:28.003Z,14.40
2023-03-29T04:52:01.228Z,14.02
2023-03-29T04:52:36.384Z,13.95
2023-03-29T04:53:10.924Z,15.52
2023-03-29T04:53:43.306Z,16.48
2023-03-29T04:54:15.878Z,14.45
2023-03-29T04:55:11.978Z,13.88
2023-03-29T04:55:55.645Z,14.30
2023-03-29T04:56:47.372Z,13.85
2023-03-29T04:57:34.509Z,13.30
2023-03-29T04:58:26.162Z,11.93
2023-03-29T04:59:00.971Z,10.30
2023-03-29T04:59:33.942Z,12.80
2023-03-29T05:00:14.907Z,13.45
2023-03-29T05:01:08.003Z,12.90
2023-03-29T05:01:46.265Z,12.20
2023-03-29T05:02:18.794Z,13.70
2023-03-29T05:02:54.229Z,13.52
2023-03-29T05:03:27.526Z,13.35
2023-03-29T05:04:12.878Z,11.82
2023-03-29T05:04:53.802Z,11.80
2023-03-29T05:05:26.462Z,11.95
2023-03-29T05:06:03.258Z,12.43
2023-03-29T05:06:36.012Z,11.73
2023-03-29T05:07:12.008Z,13.43
2023-03-29T05:07:45.499Z,14.50
2023-03-29T05:08:19.663Z,14.10
2023-03-29T05:09:14.942Z,14.77
2023-03-29T05:09:52.545Z,16.42
2023-03-29T05:10:26.726Z,15.27
2023-03-29T05:10:59.559Z,16.23
2023-03-29T05:11:33.678Z,15.07
2023-03-29T05:12:06.803Z,15.13
2023-03-29T05:12:54.513Z,13.43
2023-03-29T05:13:28.245Z,13.52
2023-03-29T05:14:03.565Z,12.55
2023-03-29T05:14:39.226Z,13.00
2023-03-29T05:15:12.362Z,11.88
2023-03-29T05:15:44.805Z,12.95
2023-03-29T05:16:17.536Z,11.70
2023-03-29T05:16:50.499Z,11.48
2023-03-29T05:17:22.896Z,10.73
2023-03-29T05:17:56.108Z,10.55
2023-03-29T05:18:29.676Z,10.20
2023-03-29T05:19:02.004Z,10.90
2023-03-29T05:19:36.658Z,10.38
2023-03-29T05:20:13.621Z,11.52
2023-03-29T05:20:50.984Z,10.25
2023-03-29T05:21:26.327Z,11.48
2023-03-29T05:21:59.662Z,10.65
2023-03-29T05:22:32.392Z,10.87
2023-03-29T05:23:04.700Z,11.77
2023-03-29T05:24:03.081Z,11.50
2023-03-29T05:25:05.412Z,11.68
2023-03-29T05:25:37.893Z,11.90
2023-03-29T05:26:10.390Z,10.88
2023-03-29T05:26:45.312Z,11.05
2023-03-29T05:27:18.844Z,10.50
2023-03-29T05:28:04.214Z,11.68
2023-03-29T05:28:37.073Z,11.52
2023-03-29T05:29:09.851Z,11.60
2023-03-29T05:29:44.801Z,12.05
2023-03-29T05:30:34.470Z,11.23
2023-03-29T05:31:26.771Z,11.05
2023-03-29T05:32:00.871Z,11.63
2023-03-29T05:32:33.441Z,10.65
2023-03-29T05:33:06.152Z,10.73
2023-03-29T05:33:39.978Z,10.45
2023-03-29T05:34:13.501Z,10.63
2023-03-29T05:34:51.811Z,10.52
2023-03-29T05:35:26.450Z,11.18
2023-03-29T05:36:01.612Z,10.45
2023-03-29T05:36:35.118Z,10.57
2023-03-29T05:37:07.842Z,10.75
2023-03-29T05:37:52.290Z,11.68
2023-03-29T05:38:24.615Z,10.70
2023-03-29T05:38:57.866Z,10.40
2023-03-29T05:39:31.811Z,10.57
2023-03-29T05:40:07.505Z,10.55
2023-03-29T05:40:52.561Z,10.73
2023-03-29T05:41:25.039Z,10.82
2023-03-29T05:42:16.444Z,10.88
2023-03-29T05:42:58.415Z,10.88
2023-03-29T05:43:31.230Z,11.07
2023-03-29T05:44:03.834Z,11.15
2023-03-29T05:44:37.288Z,11.10
2023-03-29T05:45:19.798Z,10.73
2023-03-29T05:45:55.329Z,10.65
2023-03-29T05:46:28.397Z,10.80
2023-03-29T05:47:03.036Z,10.45
2023-03-29T05:47:36.708Z,10.90
2023-03-29T05:48:10.056Z,10.88
2023-03-29T05:48:46.218Z,10.65
2023-03-29T05:49:18.878Z,10.93
2023-03-29T05:50:05.026Z,12.23
2023-03-29T05:50:38.618Z,11.32
2023-03-29T05:51:11.914Z,11.45
2023-03-29T05:51:45.862Z,11.32
2023-03-29T05:52:18.728Z,12.13
2023-03-29T05:52:51.900Z,12.98
2023-03-29T05:53:25.222Z,13.10
2023-03-29T05:53:57.588Z,12.00
2023-03-29T05:54:29.931Z,12.38
2023-03-29T05:55:04.618Z,12.07
2023-03-29T05:55:37.011Z,11.57
2023-03-29T05:56:11.079Z,10.10
2023-03-29T05:56:44.063Z,10.65
2023-03-29T05:57:16.509Z,10.93
2023-03-29T05:57:49.843Z,10.15
2023-03-29T05:58:26.818Z,9.32
2023-03-29T05:58:59.286Z,10.68
2023-03-29T05:59:32.370Z,9.77
2023-03-29T06:00:15.818Z,9.80
2023-03-29T06:00:52.060Z,10.20
2023-03-29T06:01:40.379Z,10.15
2023-03-29T06:02:17.310Z,9.13
2023-03-29T06:03:06.436Z,11.05
2023-03-29T06:03:47.748Z,10.23
2023-03-29T06:04:21.980Z,9.90
2023-03-29T06:05:04.939Z,9.52
2023-03-29T06:05:59.575Z,9.20
2023-03-29T06:06:32.344Z,9.30
2023-03-29T06:07:05.857Z,9.48
2023-03-29T06:07:38.938Z,10.38
2023-03-29T06:08:32.648Z,10.40
2023-03-29T06:09:19.461Z,9.43
2023-03-29T06:10:05.150Z,9.70
2023-03-29T06:10:39.044Z,9.57
2023-03-29T06:11:43.452Z,9.55
2023-03-29T06:12:15.795Z,8.95
2023-03-29T06:13:03.218Z,8.73
2023-03-29T06:13:39.301Z,9.32
2023-03-29T06:14:12.507Z,10.10
2023-03-29T06:14:50.220Z,9.32
2023-03-29T06:15:35.686Z,9.75
2023-03-29T06:16:11.384Z,10.93
2023-03-29T06:16:45.306Z,10.50
2023-03-29T06:17:19.230Z,11.52
2023-03-29T06:17:52.752Z,12.57
2023-03-29T06:18:25.883Z,11.88
2023-03-29T06:18:58.416Z,10.77
2023-03-29T06:19:31.988Z,11.77
2023-03-29T06:20:09.298Z,11.48
2023-03-29T06:20:43.089Z,11.38
2023-03-29T06:21:19.513Z,11.30
2023-03-29T06:21:53.994Z,10.55
2023-03-29T06:22:30.294Z,10.90
2023-03-29T06:23:02.741Z,11.85
2023-03-29T06:23:36.582Z,11.85
2023-03-29T06:24:09.656Z,11.07
2023-03-29T06:24:48.076Z,11.48
2023-03-29T06:25:28.555Z,12.43
2023-03-29T06:26:00.973Z,11.82
2023-03-29T06:26:33.820Z,10.77
2023-03-29T06:27:06.474Z,11.70
2023-03-29T06:27:38.971Z,12.02
2023-03-29T06:28:12.556Z,13.07
2023-03-29T06:28:45.315Z,13.35
2023-03-29T06:29:18.058Z,13.48
2023-03-29T06:29:52.238Z,13.73
2023-03-29T06:30:25.308Z,14.70
2023-03-29T06:31:03.651Z,13.98
2023-03-29T06:31:41.342Z,14.52
2023-03-29T06:32:18.094Z,13.23
2023-03-29T06:32:53.331Z,12.60
2023-03-29T06:34:05.012Z,11.85
2023-03-29T06:34:43.176Z,10.90
2023-03-29T06:35:30.860Z,10.38
2023-03-29T06:36:11.960Z,11.38
2023-03-29T06:36:46.103Z,11.73
2023-03-29T06:37:19.655Z,11.93
2023-03-29T06:37:54.906Z,11.07
2023-03-29T06:39:08.824Z,12.02
2023-03-29T06:40:01.226Z,11.48
2023-03-29T06:40:40.640Z,11.40
2023-03-29T06:41:13.164Z,13.13
2023-03-29T06:42:13.010Z,10.73
2023-03-29T06:43:09.960Z,12.10
2023-03-29T06:43:42.794Z,12.80
2023-03-29T06:44:21.079Z,11.70
2023-03-29T06:45:04.766Z,10.33
2023-03-29T06:45:37.894Z,10.48
2023-03-29T06:46:17.082Z,11.02
2023-03-29T06:47:00.156Z,10.25
2023-03-29T06:47:33.097Z,9.90
2023-03-29T06:48:06.594Z,10.27
2023-03-29T06:48:39.599Z,9.65
2023-03-29T06:49:12.668Z,10.23
2023-03-29T06:50:10.435Z,9.70
2023-03-29T06:50:52.650Z,10.02
2023-03-29T06:51:29.519Z,10.47
2023-03-29T06:52:01.819Z,10.38
2023-03-29T06:52:34.196Z,10.40
2023-03-29T06:53:06.626Z,10.43
2023-03-29T06:53:40.581Z,10.20
2023-03-29T06:54:13.539Z,10.18
2023-03-29T06:54:54.627Z,9.73
2023-03-29T06:55:29.375Z,10.63
2023-03-29T06:56:05.933Z,10.20
2023-03-29T06:56:53.609Z,9.25
2023-03-29T06:57:27.692Z,10.37
2023-03-29T06:58:02.665Z,10.07
2023-03-29T06:58:35.993Z,10.25
2023-03-29T06:59:14.882Z,10.65
2023-03-29T07:00:28.149Z,9.80
2023-03-29T07:01:19.100Z,9.73
2023-03-29T07:01:57.233Z,9.18
2023-03-29T07:02:49.486Z,9.10
2023-03-29T07:03:23.913Z,9.40
2023-03-29T07:04:04.869Z,10.40
2023-03-29T07:04:42.855Z,11.07
2023-03-29T07:05:41.518Z,10.23
2023-03-29T07:06:20.713Z,10.00
2023-03-29T07:07:01.858Z,9.80
2023-03-29T07:07:53.845Z,10.02
2023-03-29T07:08:45.557Z,9.05
2023-03-29T07:09:26.805Z,9.30
2023-03-29T07:10:17.651Z,10.05
2023-03-29T07:11:08.562Z,8.23
2023-03-29T07:11:54.987Z,9.82
2023-03-29T07:12:29.509Z,10.45
2023-03-29T07:13:06.251Z,11.32
2023-03-29T07:13:40.591Z,10.63
2023-03-29T07:14:13.616Z,10.57
2023-03-29T07:14:46.825Z,8.27
2023-03-29T07:15:21.317Z,10.77
2023-03-29T07:16:14.977Z,9.65
2023-03-29T07:17:23.003Z,10.15
2023-03-29T07:17:56.372Z,9.52
2023-03-29T07:18:29.153Z,9.63
2023-03-29T07:19:01.763Z,11.17
2023-03-29T07:20:00.173Z,9.32
2023-03-29T07:20:58.878Z,9.52
2023-03-29T07:21:31.444Z,9.40
2023-03-29T07:22:04.279Z,8.50
2023-03-29T07:22:51.597Z,9.45
2023-03-29T07:23:24.794Z,9.65
2023-03-29T07:23:58.490Z,9.82
2023-03-29T07:24:31.212Z,9.25
2023-03-29T07:25:03.765Z,8.93
2023-03-29T07:25:36.553Z,9.10
2023-03-29T07:26:08.901Z,8.55
2023-03-29T07:26:52.343Z,8.88
2023-03-29T07:27:33.689Z,8.65
2023-03-29T07:28:06.967Z,8.10
2023-03-29T07:28:39.905Z,7.85
2023-03-29T07:29:12.372Z,8.25
2023-03-29T07:29:45.879Z,8.38
2023-03-29T07:30:21.181Z,8.55
2023-03-29T07:30:55.159Z,8.43
2023-03-29T07:31:29.889Z,8.57
2023-03-29T07:32:18.791Z,8.60
2023-03-29T07:33:00.659Z,7.72
2023-03-29T07:33:38.946Z,9.00
2023-03-29T07:34:12.202Z,8.48
2023-03-29T07:34:44.644Z,7.70
2023-03-29T07:35:26.773Z,8.73
2023-03-29T07:35:59.567Z,8.60
2023-03-29T07:36:34.584Z,8.38
2023-03-29T07:37:07.983Z,8.70
2023-03-29T07:37:43.071Z,9.30
2023-03-29T07:38:15.829Z,8.30
2023-03-29T07:38:56.289Z,8.98
2023-03-29T07:39:31.537Z,8.85
2023-03-29T07:40:27.762Z,7.75
2023-03-29T07:41:06.156Z,8.25
2023-03-29T07:41:50.341Z,7.72
2023-03-29T07:42:22.704Z,8.38
2023-03-29T07:42:56.791Z,7.85
2023-03-29T07:43:30.570Z,7.65
2023-03-29T07:44:09.262Z,8.40
2023-03-29T07:44:41.888Z,7.85
2023-03-29T07:45:16.549Z,7.80
2023-03-29T07:46:02.681Z,8.35
2023-03-29T07:46:36.530Z,8.70
2023-03-29T07:47:09.545Z,8.55
2023-03-29T07:47:46.532Z,8.75
2023-03-29T07:48:19.674Z,8.70
2023-03-29T07:49:03.783Z,7.90
2023-03-29T07:49:36.177Z,8.82
2023-03-29T07:50:09.158Z,8.80
2023-03-29T07:50:43.496Z,8.73
2023-03-29T07:51:16.853Z,10.02
2023-03-29T07:51:51.201Z,8.80
2023-03-29T07:52:23.688Z,9.40
2023-03-29T07:52:57.124Z,9.40
2023-03-29T07:53:32.456Z,9.65
2023-03-29T07:54:08.335Z,10.32
2023-03-29T07:54:59.388Z,9.45
2023-03-29T07:55:47.142Z,8.50
2023-03-29T07:56:55.957Z,8.20
2023-03-29T07:57:38.273Z,7.72
2023-03-29T07:58:10.686Z,8.38
2023-03-29T07:58:43.611Z,8.55
2023-03-29T07:59:17.341Z,8.40
2023-03-29T07:59:54.290Z,8.10
2023-03-29T08:00:34.661Z,8.25
2023-03-29T08:01:41.276Z,7.45
2023-03-29T08:02:30.967Z,7.43
2023-03-29T08:03:07.621Z,7.60
2023-03-29T08:03:40.497Z,7.10
2023-03-29T08:04:13.507Z,7.20
2023-03-29T08:05:05.123Z,7.72
2023-03-29T08:05:56.494Z,7.55
2023-03-29T08:06:28.985Z,7.57
2023-03-29T08:07:01.320Z,7.90
2023-03-29T08:07:51.397Z,7.57
2023-03-29T08:08:47.131Z,7.32
2023-03-29T08:09:22.750Z,8.25
2023-03-29T08:09:55.234Z,7.32